sensor_id;sensor_type;location;lat;lon;timestamp;P1;durP1;ratioP1;P2;durP2;ratioP2
5221;SDS011;2630;52.036;8.514;2023-08-20T00:01:42;78.40;;;6.67;;
5221;SDS011;2630;52.036;8.514;2023-08-20T00:04:08;73.83;;;6.10;;
5221;SDS011;2630;52.036;8.514;2023-08-20T00:06:34;111.13;;;8.97;;
5221;SDS011;2630;52.036;8.514;2023-08-20T00:09:00;72.87;;;5.80;;
5221;SDS011;2630;52.036;8.514;2023-08-20T00:11:26;77.47;;;6.40;;
5221;SDS011;2630;52.036;8.514;2023-08-20T00:13:52;72.17;;;5.60;;
5221;SDS011;2630;52.036;8.514;2023-08-20T00:16:18;87.30;;;6.37;;
5221;SDS011;2630;52.036;8.514;2023-08-20T00:18:44;74.70;;;6.73;;
5221;SDS011;2630;52.036;8.514;2023-08-20T00:21:10;83.23;;;6.20;;
5221;SDS011;2630;52.036;8.514;2023-08-20T00:23:36;74.57;;;5.70;;
5221;SDS011;2630;52.036;8.514;2023-08-20T00:26:02;84.03;;;6.30;;
5221;SDS011;2630;52.036;8.514;2023-08-20T00:28:28;74.60;;;6.50;;
5221;SDS011;2630;52.036;8.514;2023-08-20T00:30:54;78.40;;;5.40;;
5221;SDS011;2630;52.036;8.514;2023-08-20T00:33:20;81.90;;;6.93;;
5221;SDS011;2630;52.036;8.514;2023-08-20T00:35:46;81.93;;;6.40;;
5221;SDS011;2630;52.036;8.514;2023-08-20T00:38:12;86.03;;;6.77;;
5221;SDS011;2630;52.036;8.514;2023-08-20T00:40:41;87.53;;;7.37;;
5221;SDS011;2630;52.036;8.514;2023-08-20T00:43:06;85.50;;;6.97;;
5221;SDS011;2630;52.036;8.514;2023-08-20T00:45:32;82.60;;;8.37;;
5221;SDS011;2630;52.036;8.514;2023-08-20T00:47:59;82.10;;;6.73;;
5221;SDS011;2630;52.036;8.514;2023-08-20T00:50:25;85.70;;;6.97;;
5221;SDS011;2630;52.036;8.514;2023-08-20T00:52:50;78.90;;;6.17;;
5221;SDS011;2630;52.036;8.514;2023-08-20T00:55:16;85.20;;;6.70;;
5221;SDS011;2630;52.036;8.514;2023-08-20T00:57:42;74.53;;;5.57;;
5221;SDS011;2630;52.036;8.514;2023-08-20T01:00:08;85.90;;;6.97;;
5221;SDS011;2630;52.036;8.514;2023-08-20T01:02:38;80.07;;;6.50;;
5221;SDS011;2630;52.036;8.514;2023-08-20T01:05:06;75.40;;;5.77;;
5221;SDS011;2630;52.036;8.514;2023-08-20T01:13:00;77.27;;;5.90;;
5221;SDS011;2630;52.036;8.514;2023-08-20T01:15:26;84.10;;;6.57;;
5221;SDS011;2630;52.036;8.514;2023-08-20T01:17:52;84.13;;;7.00;;
5221;SDS011;2630;52.036;8.514;2023-08-20T01:20:18;78.50;;;6.10;;
5221;SDS011;2630;52.036;8.514;2023-08-20T01:22:52;78.50;;;5.97;;
5221;SDS011;2630;52.036;8.514;2023-08-20T01:25:32;75.70;;;5.50;;
5221;SDS011;2630;52.036;8.514;2023-08-20T01:30:47;73.10;;;5.47;;
5221;SDS011;2630;52.036;8.514;2023-08-20T01:33:13;73.17;;;5.53;;
5221;SDS011;2630;52.036;8.514;2023-08-20T01:35:40;73.20;;;5.77;;
5221;SDS011;2630;52.036;8.514;2023-08-20T01:38:06;80.10;;;6.30;;
5221;SDS011;2630;52.036;8.514;2023-08-20T01:40:32;79.30;;;6.50;;
5221;SDS011;2630;52.036;8.514;2023-08-20T01:42:58;80.63;;;6.57;;
5221;SDS011;2630;52.036;8.514;2023-08-20T01:45:24;80.10;;;6.10;;
5221;SDS011;2630;52.036;8.514;2023-08-20T01:47:51;84.27;;;7.43;;
5221;SDS011;2630;52.036;8.514;2023-08-20T01:50:17;73.40;;;5.77;;
5221;SDS011;2630;52.036;8.514;2023-08-20T01:52:43;77.67;;;6.20;;
5221;SDS011;2630;52.036;8.514;2023-08-20T01:55:10;73.30;;;5.33;;
5221;SDS011;2630;52.036;8.514;2023-08-20T01:57:36;75.10;;;5.60;;
5221;SDS011;2630;52.036;8.514;2023-08-20T02:00:02;78.63;;;6.00;;
5221;SDS011;2630;52.036;8.514;2023-08-20T02:02:30;73.37;;;5.70;;
5221;SDS011;2630;52.036;8.514;2023-08-20T02:04:56;78.60;;;5.37;;
5221;SDS011;2630;52.036;8.514;2023-08-20T02:07:22;73.37;;;5.90;;
5221;SDS011;2630;52.036;8.514;2023-08-20T02:09:47;88.43;;;7.40;;
5221;SDS011;2630;52.036;8.514;2023-08-20T02:12:14;73.00;;;5.53;;
5221;SDS011;2630;52.036;8.514;2023-08-20T02:14:39;75.00;;;5.80;;
5221;SDS011;2630;52.036;8.514;2023-08-20T02:17:05;83.37;;;6.67;;
5221;SDS011;2630;52.036;8.514;2023-08-20T02:19:31;76.23;;;6.50;;
5221;SDS011;2630;52.036;8.514;2023-08-20T02:21:57;73.13;;;5.43;;
5221;SDS011;2630;52.036;8.514;2023-08-20T02:24:23;82.30;;;6.60;;
5221;SDS011;2630;52.036;8.514;2023-08-20T02:26:49;73.67;;;5.90;;
5221;SDS011;2630;52.036;8.514;2023-08-20T02:29:15;99.17;;;7.90;;
5221;SDS011;2630;52.036;8.514;2023-08-20T02:31:41;73.97;;;5.50;;
5221;SDS011;2630;52.036;8.514;2023-08-20T02:34:07;73.40;;;5.87;;
5221;SDS011;2630;52.036;8.514;2023-08-20T02:36:33;80.00;;;6.10;;
5221;SDS011;2630;52.036;8.514;2023-08-20T02:38:58;81.60;;;6.20;;
5221;SDS011;2630;52.036;8.514;2023-08-20T02:41:24;81.63;;;5.97;;
5221;SDS011;2630;52.036;8.514;2023-08-20T02:43:50;73.40;;;5.67;;
5221;SDS011;2630;52.036;8.514;2023-08-20T02:46:16;73.30;;;5.80;;
5221;SDS011;2630;52.036;8.514;2023-08-20T02:48:42;73.37;;;5.70;;
5221;SDS011;2630;52.036;8.514;2023-08-20T02:51:08;78.30;;;6.10;;
5221;SDS011;2630;52.036;8.514;2023-08-20T02:53:34;73.30;;;5.80;;
5221;SDS011;2630;52.036;8.514;2023-08-20T02:55:59;98.97;;;7.90;;
5221;SDS011;2630;52.036;8.514;2023-08-20T02:58:25;73.50;;;5.77;;
5221;SDS011;2630;52.036;8.514;2023-08-20T03:00:51;73.30;;;5.50;;
5221;SDS011;2630;52.036;8.514;2023-08-20T03:03:18;90.03;;;8.63;;
5221;SDS011;2630;52.036;8.514;2023-08-20T03:05:44;73.30;;;5.70;;
5221;SDS011;2630;52.036;8.514;2023-08-20T03:08:10;72.93;;;5.70;;
5221;SDS011;2630;52.036;8.514;2023-08-20T03:10:35;74.00;;;5.17;;
5221;SDS011;2630;52.036;8.514;2023-08-20T03:13:01;72.97;;;5.20;;
5221;SDS011;2630;52.036;8.514;2023-08-20T03:15:30;73.10;;;5.30;;
5221;SDS011;2630;52.036;8.514;2023-08-20T03:17:56;80.03;;;6.23;;
5221;SDS011;2630;52.036;8.514;2023-08-20T03:20:21;117.97;;;15.70;;
5221;SDS011;2630;52.036;8.514;2023-08-20T03:22:48;73.57;;;5.60;;
5221;SDS011;2630;52.036;8.514;2023-08-20T03:25:14;84.67;;;6.57;;
5221;SDS011;2630;52.036;8.514;2023-08-20T03:27:40;81.23;;;6.50;;
5221;SDS011;2630;52.036;8.514;2023-08-20T03:30:06;77.07;;;6.20;;
5221;SDS011;2630;52.036;8.514;2023-08-20T03:32:32;84.20;;;6.90;;
5221;SDS011;2630;52.036;8.514;2023-08-20T03:34:58;78.07;;;5.70;;
5221;SDS011;2630;52.036;8.514;2023-08-20T03:37:25;76.03;;;6.03;;
5221;SDS011;2630;52.036;8.514;2023-08-20T03:39:51;78.30;;;5.77;;
5221;SDS011;2630;52.036;8.514;2023-08-20T03:42:17;78.73;;;6.07;;
5221;SDS011;2630;52.036;8.514;2023-08-20T03:44:43;79.07;;;6.30;;
5221;SDS011;2630;52.036;8.514;2023-08-20T03:47:09;73.73;;;5.27;;
5221;SDS011;2630;52.036;8.514;2023-08-20T03:49:35;79.30;;;6.67;;
5221;SDS011;2630;52.036;8.514;2023-08-20T03:52:01;92.67;;;7.57;;
5221;SDS011;2630;52.036;8.514;2023-08-20T03:54:28;97.87;;;8.17;;
5221;SDS011;2630;52.036;8.514;2023-08-20T03:56:54;85.67;;;7.30;;
5221;SDS011;2630;52.036;8.514;2023-08-20T03:59:20;86.80;;;6.63;;
5221;SDS011;2630;52.036;8.514;2023-08-20T04:01:46;76.27;;;5.40;;
5221;SDS011;2630;52.036;8.514;2023-08-20T04:04:12;73.20;;;5.67;;
5221;SDS011;2630;52.036;8.514;2023-08-20T04:06:38;75.30;;;6.30;;
5221;SDS011;2630;52.036;8.514;2023-08-20T04:09:04;73.17;;;5.13;;
5221;SDS011;2630;52.036;8.514;2023-08-20T04:11:31;78.30;;;5.90;;
5221;SDS011;2630;52.036;8.514;2023-08-20T04:13:57;86.60;;;6.67;;
5221;SDS011;2630;52.036;8.514;2023-08-20T04:16:22;73.20;;;5.40;;
5221;SDS011;2630;52.036;8.514;2023-08-20T04:18:48;73.20;;;5.47;;
5221;SDS011;2630;52.036;8.514;2023-08-20T04:21:14;73.10;;;5.37;;
5221;SDS011;2630;52.036;8.514;2023-08-20T04:23:40;74.73;;;5.33;;
5221;SDS011;2630;52.036;8.514;2023-08-20T04:26:06;80.33;;;6.20;;
5221;SDS011;2630;52.036;8.514;2023-08-20T04:28:32;110.13;;;9.27;;
5221;SDS011;2630;52.036;8.514;2023-08-20T04:30:58;81.73;;;6.60;;
5221;SDS011;2630;52.036;8.514;2023-08-20T04:33:25;87.53;;;6.60;;
5221;SDS011;2630;52.036;8.514;2023-08-20T04:35:51;88.23;;;6.80;;
5221;SDS011;2630;52.036;8.514;2023-08-20T04:38:17;85.43;;;6.60;;
5221;SDS011;2630;52.036;8.514;2023-08-20T04:40:46;87.27;;;6.93;;
5221;SDS011;2630;52.036;8.514;2023-08-20T04:43:12;89.60;;;8.30;;
5221;SDS011;2630;52.036;8.514;2023-08-20T04:45:38;73.20;;;5.30;;
5221;SDS011;2630;52.036;8.514;2023-08-20T04:48:04;93.53;;;7.53;;
5221;SDS011;2630;52.036;8.514;2023-08-20T04:50:30;73.30;;;5.47;;
5221;SDS011;2630;52.036;8.514;2023-08-20T04:52:56;84.07;;;6.70;;
5221;SDS011;2630;52.036;8.514;2023-08-20T04:55:24;76.27;;;5.13;;
5221;SDS011;2630;52.036;8.514;2023-08-20T04:57:50;75.70;;;5.90;;
5221;SDS011;2630;52.036;8.514;2023-08-20T05:00:16;78.60;;;5.93;;
5221;SDS011;2630;52.036;8.514;2023-08-20T05:02:42;73.20;;;5.67;;
5221;SDS011;2630;52.036;8.514;2023-08-20T05:05:08;74.23;;;5.70;;
5221;SDS011;2630;52.036;8.514;2023-08-20T05:07:34;75.10;;;5.80;;
5221;SDS011;2630;52.036;8.514;2023-08-20T05:10:00;81.60;;;6.93;;
5221;SDS011;2630;52.036;8.514;2023-08-20T05:12:25;73.27;;;5.70;;
5221;SDS011;2630;52.036;8.514;2023-08-20T05:14:51;95.43;;;7.77;;
5221;SDS011;2630;52.036;8.514;2023-08-20T05:17:17;73.10;;;5.67;;
5221;SDS011;2630;52.036;8.514;2023-08-20T05:19:43;82.63;;;7.07;;
5221;SDS011;2630;52.036;8.514;2023-08-20T05:22:08;73.27;;;5.90;;
5221;SDS011;2630;52.036;8.514;2023-08-20T05:24:36;74.40;;;5.40;;
5221;SDS011;2630;52.036;8.514;2023-08-20T05:27:06;87.00;;;7.13;;
5221;SDS011;2630;52.036;8.514;2023-08-20T05:29:39;87.90;;;7.27;;
5221;SDS011;2630;52.036;8.514;2023-08-20T05:32:05;88.43;;;7.20;;
5221;SDS011;2630;52.036;8.514;2023-08-20T05:34:32;73.40;;;5.53;;
5221;SDS011;2630;52.036;8.514;2023-08-20T05:36:58;72.97;;;5.17;;
5221;SDS011;2630;52.036;8.514;2023-08-20T05:39:24;79.50;;;6.40;;
5221;SDS011;2630;52.036;8.514;2023-08-20T05:41:51;73.20;;;5.30;;
5221;SDS011;2630;52.036;8.514;2023-08-20T05:44:17;73.20;;;5.37;;
5221;SDS011;2630;52.036;8.514;2023-08-20T05:46:43;79.90;;;6.13;;
5221;SDS011;2630;52.036;8.514;2023-08-20T05:49:09;73.10;;;5.67;;
5221;SDS011;2630;52.036;8.514;2023-08-20T05:51:34;87.17;;;7.10;;
5221;SDS011;2630;52.036;8.514;2023-08-20T05:54:00;73.87;;;5.60;;
5221;SDS011;2630;52.036;8.514;2023-08-20T05:56:26;74.87;;;5.80;;
5221;SDS011;2630;52.036;8.514;2023-08-20T05:58:51;72.87;;;5.43;;
5221;SDS011;2630;52.036;8.514;2023-08-20T06:01:17;82.10;;;6.57;;
5221;SDS011;2630;52.036;8.514;2023-08-20T06:03:43;92.13;;;7.80;;
5221;SDS011;2630;52.036;8.514;2023-08-20T06:06:09;72.73;;;5.23;;
5221;SDS011;2630;52.036;8.514;2023-08-20T06:08:35;72.40;;;5.00;;
5221;SDS011;2630;52.036;8.514;2023-08-20T06:11:01;76.00;;;6.70;;
5221;SDS011;2630;52.036;8.514;2023-08-20T06:13:26;73.40;;;5.80;;
5221;SDS011;2630;52.036;8.514;2023-08-20T06:15:52;72.63;;;5.23;;
5221;SDS011;2630;52.036;8.514;2023-08-20T06:18:18;81.30;;;6.00;;
5221;SDS011;2630;52.036;8.514;2023-08-20T06:20:44;74.80;;;5.67;;
5221;SDS011;2630;52.036;8.514;2023-08-20T06:23:09;73.57;;;5.47;;
5221;SDS011;2630;52.036;8.514;2023-08-20T06:25:35;86.67;;;7.03;;
5221;SDS011;2630;52.036;8.514;2023-08-20T06:28:01;77.53;;;5.50;;
5221;SDS011;2630;52.036;8.514;2023-08-20T06:30:27;88.47;;;7.90;;
5221;SDS011;2630;52.036;8.514;2023-08-20T06:32:53;72.90;;;5.70;;
5221;SDS011;2630;52.036;8.514;2023-08-20T06:35:19;83.63;;;6.60;;
5221;SDS011;2630;52.036;8.514;2023-08-20T06:37:45;73.63;;;5.00;;
5221;SDS011;2630;52.036;8.514;2023-08-20T06:40:10;82.43;;;6.73;;
5221;SDS011;2630;52.036;8.514;2023-08-20T06:42:36;72.70;;;5.30;;
5221;SDS011;2630;52.036;8.514;2023-08-20T06:45:01;75.30;;;5.80;;
5221;SDS011;2630;52.036;8.514;2023-08-20T06:47:27;74.77;;;6.07;;
5221;SDS011;2630;52.036;8.514;2023-08-20T06:49:53;92.40;;;7.50;;
5221;SDS011;2630;52.036;8.514;2023-08-20T06:52:19;72.90;;;5.80;;
5221;SDS011;2630;52.036;8.514;2023-08-20T06:54:44;88.93;;;6.87;;
5221;SDS011;2630;52.036;8.514;2023-08-20T06:57:10;72.40;;;5.03;;
5221;SDS011;2630;52.036;8.514;2023-08-20T06:59:36;71.97;;;5.63;;
5221;SDS011;2630;52.036;8.514;2023-08-20T07:02:02;86.20;;;6.60;;
5221;SDS011;2630;52.036;8.514;2023-08-20T07:04:28;73.30;;;5.53;;
5221;SDS011;2630;52.036;8.514;2023-08-20T07:06:54;75.63;;;6.20;;
5221;SDS011;2630;52.036;8.514;2023-08-20T07:09:20;110.47;;;9.80;;
5221;SDS011;2630;52.036;8.514;2023-08-20T07:11:46;85.13;;;7.47;;
5221;SDS011;2630;52.036;8.514;2023-08-20T07:14:12;72.57;;;5.83;;
5221;SDS011;2630;52.036;8.514;2023-08-20T07:16:38;79.43;;;7.00;;
5221;SDS011;2630;52.036;8.514;2023-08-20T07:19:04;83.50;;;7.30;;
5221;SDS011;2630;52.036;8.514;2023-08-20T07:21:30;79.20;;;7.13;;
5221;SDS011;2630;52.036;8.514;2023-08-20T07:23:56;89.93;;;8.77;;
5221;SDS011;2630;52.036;8.514;2023-08-20T07:26:22;78.67;;;6.70;;
5221;SDS011;2630;52.036;8.514;2023-08-20T07:28:48;80.63;;;8.37;;
5221;SDS011;2630;52.036;8.514;2023-08-20T07:31:23;85.17;;;7.70;;
5221;SDS011;2630;52.036;8.514;2023-08-20T07:33:50;85.83;;;6.63;;
5221;SDS011;2630;52.036;8.514;2023-08-20T07:36:16;74.07;;;5.90;;
5221;SDS011;2630;52.036;8.514;2023-08-20T07:38:43;81.80;;;6.93;;
5221;SDS011;2630;52.036;8.514;2023-08-20T07:41:09;88.17;;;8.20;;
5221;SDS011;2630;52.036;8.514;2023-08-20T07:43:36;81.23;;;6.67;;
5221;SDS011;2630;52.036;8.514;2023-08-20T07:46:03;90.13;;;7.37;;
5221;SDS011;2630;52.036;8.514;2023-08-20T07:48:29;87.00;;;7.10;;
5221;SDS011;2630;52.036;8.514;2023-08-20T07:50:54;81.70;;;6.90;;
5221;SDS011;2630;52.036;8.514;2023-08-20T07:53:20;77.53;;;6.30;;
5221;SDS011;2630;52.036;8.514;2023-08-20T07:55:46;84.90;;;7.23;;
5221;SDS011;2630;52.036;8.514;2023-08-20T07:58:12;80.27;;;6.27;;
5221;SDS011;2630;52.036;8.514;2023-08-20T08:00:38;91.30;;;8.70;;
5221;SDS011;2630;52.036;8.514;2023-08-20T08:03:04;86.50;;;12.50;;
5221;SDS011;2630;52.036;8.514;2023-08-20T08:05:29;72.60;;;6.00;;
5221;SDS011;2630;52.036;8.514;2023-08-20T08:07:55;89.50;;;7.40;;
5221;SDS011;2630;52.036;8.514;2023-08-20T08:10:21;80.40;;;6.60;;
5221;SDS011;2630;52.036;8.514;2023-08-20T08:12:47;79.60;;;6.33;;
5221;SDS011;2630;52.036;8.514;2023-08-20T08:15:13;85.03;;;7.80;;
5221;SDS011;2630;52.036;8.514;2023-08-20T08:17:39;83.87;;;7.03;;
5221;SDS011;2630;52.036;8.514;2023-08-20T08:20:05;73.30;;;6.23;;
5221;SDS011;2630;52.036;8.514;2023-08-20T08:22:31;73.57;;;6.20;;
5221;SDS011;2630;52.036;8.514;2023-08-20T08:24:57;84.40;;;7.50;;
5221;SDS011;2630;52.036;8.514;2023-08-20T08:27:23;80.07;;;6.70;;
5221;SDS011;2630;52.036;8.514;2023-08-20T08:29:48;72.90;;;6.13;;
5221;SDS011;2630;52.036;8.514;2023-08-20T08:32:14;92.33;;;8.87;;
5221;SDS011;2630;52.036;8.514;2023-08-20T08:34:40;72.67;;;5.87;;
5221;SDS011;2630;52.036;8.514;2023-08-20T08:37:06;82.93;;;7.37;;
5221;SDS011;2630;52.036;8.514;2023-08-20T08:39:32;86.50;;;8.00;;
5221;SDS011;2630;52.036;8.514;2023-08-20T08:42:01;77.90;;;6.70;;
5221;SDS011;2630;52.036;8.514;2023-08-20T08:44:29;75.70;;;7.03;;
5221;SDS011;2630;52.036;8.514;2023-08-20T08:46:57;80.60;;;7.47;;
5221;SDS011;2630;52.036;8.514;2023-08-20T08:49:23;89.00;;;8.30;;
5221;SDS011;2630;52.036;8.514;2023-08-20T08:51:48;72.90;;;6.60;;
5221;SDS011;2630;52.036;8.514;2023-08-20T08:54:16;84.83;;;7.77;;
5221;SDS011;2630;52.036;8.514;2023-08-20T08:56:42;91.37;;;8.23;;
5221;SDS011;2630;52.036;8.514;2023-08-20T08:59:07;89.00;;;8.60;;
5221;SDS011;2630;52.036;8.514;2023-08-20T09:01:37;75.27;;;6.87;;
5221;SDS011;2630;52.036;8.514;2023-08-20T09:04:04;73.83;;;7.73;;
5221;SDS011;2630;52.036;8.514;2023-08-20T09:06:43;81.10;;;8.60;;
5221;SDS011;2630;52.036;8.514;2023-08-20T09:09:11;74.13;;;7.30;;
5221;SDS011;2630;52.036;8.514;2023-08-20T09:11:37;88.93;;;10.83;;
5221;SDS011;2630;52.036;8.514;2023-08-20T09:14:02;79.40;;;6.90;;
5221;SDS011;2630;52.036;8.514;2023-08-20T09:16:29;81.07;;;7.97;;
5221;SDS011;2630;52.036;8.514;2023-08-20T09:18:57;77.20;;;6.33;;
5221;SDS011;2630;52.036;8.514;2023-08-20T09:21:26;93.00;;;8.63;;
5221;SDS011;2630;52.036;8.514;2023-08-20T09:23:56;81.03;;;7.87;;
5221;SDS011;2630;52.036;8.514;2023-08-20T09:26:24;80.50;;;7.40;;
5221;SDS011;2630;52.036;8.514;2023-08-20T09:28:54;78.00;;;8.10;;
5221;SDS011;2630;52.036;8.514;2023-08-20T09:31:22;82.70;;;7.73;;
5221;SDS011;2630;52.036;8.514;2023-08-20T09:34:04;78.00;;;6.70;;
5221;SDS011;2630;52.036;8.514;2023-08-20T09:36:31;78.23;;;6.37;;
5221;SDS011;2630;52.036;8.514;2023-08-20T09:38:58;74.30;;;6.60;;
5221;SDS011;2630;52.036;8.514;2023-08-20T09:41:24;98.33;;;8.97;;
5221;SDS011;2630;52.036;8.514;2023-08-20T09:43:53;75.97;;;7.60;;
5221;SDS011;2630;52.036;8.514;2023-08-20T09:46:21;73.40;;;7.20;;
5221;SDS011;2630;52.036;8.514;2023-08-20T09:48:49;73.17;;;7.10;;
5221;SDS011;2630;52.036;8.514;2023-08-20T09:51:17;86.57;;;8.50;;
5221;SDS011;2630;52.036;8.514;2023-08-20T09:53:51;75.53;;;7.67;;
5221;SDS011;2630;52.036;8.514;2023-08-20T09:56:28;73.40;;;7.20;;
5221;SDS011;2630;52.036;8.514;2023-08-20T09:58:55;74.13;;;7.40;;
5221;SDS011;2630;52.036;8.514;2023-08-20T10:01:21;75.57;;;6.80;;
5221;SDS011;2630;52.036;8.514;2023-08-20T10:03:48;75.40;;;7.30;;
5221;SDS011;2630;52.036;8.514;2023-08-20T10:06:14;73.17;;;6.40;;
5221;SDS011;2630;52.036;8.514;2023-08-20T10:08:40;76.20;;;6.87;;
5221;SDS011;2630;52.036;8.514;2023-08-20T10:11:06;77.87;;;7.50;;
5221;SDS011;2630;52.036;8.514;2023-08-20T10:13:32;76.47;;;7.40;;
5221;SDS011;2630;52.036;8.514;2023-08-20T10:15:58;79.83;;;7.33;;
5221;SDS011;2630;52.036;8.514;2023-08-20T10:18:24;88.07;;;8.20;;
5221;SDS011;2630;52.036;8.514;2023-08-20T10:20:52;79.90;;;7.80;;
5221;SDS011;2630;52.036;8.514;2023-08-20T10:23:21;84.67;;;8.40;;
5221;SDS011;2630;52.036;8.514;2023-08-20T10:25:51;86.53;;;8.20;;
5221;SDS011;2630;52.036;8.514;2023-08-20T10:28:21;82.53;;;8.07;;
5221;SDS011;2630;52.036;8.514;2023-08-20T10:33:34;79.20;;;7.57;;
5221;SDS011;2630;52.036;8.514;2023-08-20T10:36:14;82.90;;;7.63;;
5221;SDS011;2630;52.036;8.514;2023-08-20T10:38:42;83.83;;;7.90;;
5221;SDS011;2630;52.036;8.514;2023-08-20T10:41:10;109.03;;;9.27;;
5221;SDS011;2630;52.036;8.514;2023-08-20T10:43:39;97.50;;;9.70;;
5221;SDS011;2630;52.036;8.514;2023-08-20T10:48:46;78.07;;;8.40;;
5221;SDS011;2630;52.036;8.514;2023-08-20T10:54:23;92.60;;;8.57;;
5221;SDS011;2630;52.036;8.514;2023-08-20T10:56:37;76.93;;;7.47;;
5221;SDS011;2630;52.036;8.514;2023-08-20T10:59:08;97.47;;;9.23;;
5221;SDS011;2630;52.036;8.514;2023-08-20T11:01:34;97.47;;;9.67;;
5221;SDS011;2630;52.036;8.514;2023-08-20T11:04:00;86.87;;;7.83;;
5221;SDS011;2630;52.036;8.514;2023-08-20T11:06:31;94.53;;;8.57;;
5221;SDS011;2630;52.036;8.514;2023-08-20T11:08:57;91.30;;;8.97;;
5221;SDS011;2630;52.036;8.514;2023-08-20T11:11:24;89.00;;;7.70;;
5221;SDS011;2630;52.036;8.514;2023-08-20T11:13:50;83.63;;;7.63;;
5221;SDS011;2630;52.036;8.514;2023-08-20T11:16:16;81.33;;;7.97;;
5221;SDS011;2630;52.036;8.514;2023-08-20T11:18:42;95.97;;;8.03;;
5221;SDS011;2630;52.036;8.514;2023-08-20T11:21:08;100.13;;;8.97;;
5221;SDS011;2630;52.036;8.514;2023-08-20T11:23:34;91.10;;;9.00;;
5221;SDS011;2630;52.036;8.514;2023-08-20T11:26:03;89.77;;;9.13;;
5221;SDS011;2630;52.036;8.514;2023-08-20T11:28:28;83.20;;;7.30;;
5221;SDS011;2630;52.036;8.514;2023-08-20T11:30:54;85.30;;;8.17;;
5221;SDS011;2630;52.036;8.514;2023-08-20T11:33:21;90.50;;;8.63;;
5221;SDS011;2630;52.036;8.514;2023-08-20T11:35:47;86.07;;;8.20;;
5221;SDS011;2630;52.036;8.514;2023-08-20T11:38:13;81.50;;;7.57;;
5221;SDS011;2630;52.036;8.514;2023-08-20T11:40:39;99.00;;;8.77;;
5221;SDS011;2630;52.036;8.514;2023-08-20T11:43:05;87.90;;;7.93;;
5221;SDS011;2630;52.036;8.514;2023-08-20T11:45:32;97.83;;;8.90;;
5221;SDS011;2630;52.036;8.514;2023-08-20T11:47:59;81.20;;;7.60;;
5221;SDS011;2630;52.036;8.514;2023-08-20T11:50:25;82.30;;;8.17;;
5221;SDS011;2630;52.036;8.514;2023-08-20T11:52:52;94.03;;;9.30;;
5221;SDS011;2630;52.036;8.514;2023-08-20T11:55:23;81.13;;;8.23;;
5221;SDS011;2630;52.036;8.514;2023-08-20T11:57:52;80.80;;;8.60;;
5221;SDS011;2630;52.036;8.514;2023-08-20T12:00:25;86.13;;;9.50;;
5221;SDS011;2630;52.036;8.514;2023-08-20T12:02:52;83.20;;;8.97;;
5221;SDS011;2630;52.036;8.514;2023-08-20T12:05:19;76.17;;;8.87;;
5221;SDS011;2630;52.036;8.514;2023-08-20T12:07:58;81.57;;;9.67;;
5221;SDS011;2630;52.036;8.514;2023-08-20T12:10:24;90.37;;;11.00;;
5221;SDS011;2630;52.036;8.514;2023-08-20T12:12:51;79.60;;;9.90;;
5221;SDS011;2630;52.036;8.514;2023-08-20T12:15:17;86.93;;;11.73;;
5221;SDS011;2630;52.036;8.514;2023-08-20T12:17:54;78.80;;;11.37;;
5221;SDS011;2630;52.036;8.514;2023-08-20T12:20:20;87.17;;;11.60;;
5221;SDS011;2630;52.036;8.514;2023-08-20T12:22:47;85.50;;;10.60;;
5221;SDS011;2630;52.036;8.514;2023-08-20T12:25:13;79.93;;;10.17;;
5221;SDS011;2630;52.036;8.514;2023-08-20T12:27:38;91.17;;;11.93;;
5221;SDS011;2630;52.036;8.514;2023-08-20T12:30:05;86.13;;;10.93;;
5221;SDS011;2630;52.036;8.514;2023-08-20T12:32:31;82.70;;;9.90;;
5221;SDS011;2630;52.036;8.514;2023-08-20T12:34:56;80.43;;;10.13;;
5221;SDS011;2630;52.036;8.514;2023-08-20T12:37:22;102.50;;;13.33;;
5221;SDS011;2630;52.036;8.514;2023-08-20T12:39:48;96.17;;;11.90;;
5221;SDS011;2630;52.036;8.514;2023-08-20T12:42:14;101.67;;;11.67;;
5221;SDS011;2630;52.036;8.514;2023-08-20T12:44:40;100.97;;;11.20;;
5221;SDS011;2630;52.036;8.514;2023-08-20T12:47:06;78.23;;;9.10;;
5221;SDS011;2630;52.036;8.514;2023-08-20T12:49:33;82.30;;;8.80;;
5221;SDS011;2630;52.036;8.514;2023-08-20T12:51:59;101.67;;;10.37;;
5221;SDS011;2630;52.036;8.514;2023-08-20T12:54:25;94.50;;;9.70;;
5221;SDS011;2630;52.036;8.514;2023-08-20T12:56:51;93.70;;;9.70;;
5221;SDS011;2630;52.036;8.514;2023-08-20T12:59:17;94.60;;;10.90;;
5221;SDS011;2630;52.036;8.514;2023-08-20T13:01:43;92.83;;;9.60;;
5221;SDS011;2630;52.036;8.514;2023-08-20T13:04:09;98.90;;;10.20;;
5221;SDS011;2630;52.036;8.514;2023-08-20T13:06:36;99.27;;;10.70;;
5221;SDS011;2630;52.036;8.514;2023-08-20T13:09:02;99.00;;;11.00;;
5221;SDS011;2630;52.036;8.514;2023-08-20T13:11:28;129.70;;;13.07;;
5221;SDS011;2630;52.036;8.514;2023-08-20T13:13:56;112.60;;;11.73;;
5221;SDS011;2630;52.036;8.514;2023-08-20T13:16:22;91.40;;;11.00;;
5221;SDS011;2630;52.036;8.514;2023-08-20T13:18:48;106.57;;;12.37;;
5221;SDS011;2630;52.036;8.514;2023-08-20T13:21:14;87.83;;;10.27;;
5221;SDS011;2630;52.036;8.514;2023-08-20T13:23:40;106.33;;;11.60;;
5221;SDS011;2630;52.036;8.514;2023-08-20T13:26:06;111.73;;;12.70;;
5221;SDS011;2630;52.036;8.514;2023-08-20T13:28:32;99.77;;;10.23;;
5221;SDS011;2630;52.036;8.514;2023-08-20T13:30:58;104.17;;;10.60;;
5221;SDS011;2630;52.036;8.514;2023-08-20T13:33:24;95.63;;;9.40;;
5221;SDS011;2630;52.036;8.514;2023-08-20T13:35:51;81.40;;;8.13;;
5221;SDS011;2630;52.036;8.514;2023-08-20T13:38:17;86.00;;;8.53;;
5221;SDS011;2630;52.036;8.514;2023-08-20T13:40:45;93.53;;;9.07;;
5221;SDS011;2630;52.036;8.514;2023-08-20T13:43:11;85.53;;;8.17;;
5221;SDS011;2630;52.036;8.514;2023-08-20T13:45:38;73.70;;;7.27;;
5221;SDS011;2630;52.036;8.514;2023-08-20T13:48:04;80.40;;;7.37;;
5221;SDS011;2630;52.036;8.514;2023-08-20T13:50:30;89.47;;;8.63;;
5221;SDS011;2630;52.036;8.514;2023-08-20T13:52:56;99.03;;;9.20;;
5221;SDS011;2630;52.036;8.514;2023-08-20T13:55:22;105.47;;;9.40;;
5221;SDS011;2630;52.036;8.514;2023-08-20T13:57:48;102.17;;;9.60;;
5221;SDS011;2630;52.036;8.514;2023-08-20T14:00:14;85.37;;;7.40;;
5221;SDS011;2630;52.036;8.514;2023-08-20T14:02:40;94.70;;;9.03;;
5221;SDS011;2630;52.036;8.514;2023-08-20T14:05:07;104.40;;;9.77;;
5221;SDS011;2630;52.036;8.514;2023-08-20T14:07:33;85.93;;;8.17;;
5221;SDS011;2630;52.036;8.514;2023-08-20T14:09:59;88.57;;;8.60;;
5221;SDS011;2630;52.036;8.514;2023-08-20T14:12:25;88.93;;;8.47;;
5221;SDS011;2630;52.036;8.514;2023-08-20T14:14:51;97.47;;;9.90;;
5221;SDS011;2630;52.036;8.514;2023-08-20T14:17:17;101.20;;;9.93;;
5221;SDS011;2630;52.036;8.514;2023-08-20T14:19:43;88.27;;;9.57;;
5221;SDS011;2630;52.036;8.514;2023-08-20T14:22:09;91.90;;;8.93;;
5221;SDS011;2630;52.036;8.514;2023-08-20T14:24:35;90.43;;;8.30;;
5221;SDS011;2630;52.036;8.514;2023-08-20T14:27:01;92.77;;;8.80;;
5221;SDS011;2630;52.036;8.514;2023-08-20T14:29:27;97.53;;;9.47;;
5221;SDS011;2630;52.036;8.514;2023-08-20T14:31:53;97.83;;;9.20;;
5221;SDS011;2630;52.036;8.514;2023-08-20T14:34:19;102.77;;;9.17;;
5221;SDS011;2630;52.036;8.514;2023-08-20T14:36:45;91.17;;;8.23;;
5221;SDS011;2630;52.036;8.514;2023-08-20T14:39:11;96.00;;;9.27;;
5221;SDS011;2630;52.036;8.514;2023-08-20T14:41:37;102.63;;;9.43;;
5221;SDS011;2630;52.036;8.514;2023-08-20T14:44:03;94.90;;;9.60;;
5221;SDS011;2630;52.036;8.514;2023-08-20T14:46:29;98.80;;;9.67;;
5221;SDS011;2630;52.036;8.514;2023-08-20T14:48:55;92.17;;;9.03;;
5221;SDS011;2630;52.036;8.514;2023-08-20T14:51:21;105.97;;;9.10;;
5221;SDS011;2630;52.036;8.514;2023-08-20T14:53:47;91.33;;;8.73;;
5221;SDS011;2630;52.036;8.514;2023-08-20T14:56:13;96.17;;;8.20;;
5221;SDS011;2630;52.036;8.514;2023-08-20T14:58:39;102.07;;;9.50;;
5221;SDS011;2630;52.036;8.514;2023-08-20T15:01:05;80.43;;;7.53;;
5221;SDS011;2630;52.036;8.514;2023-08-20T15:03:33;93.80;;;9.20;;
5221;SDS011;2630;52.036;8.514;2023-08-20T15:05:59;94.57;;;9.80;;
5221;SDS011;2630;52.036;8.514;2023-08-20T15:08:25;93.37;;;10.13;;
5221;SDS011;2630;52.036;8.514;2023-08-20T15:10:57;95.27;;;9.10;;
5221;SDS011;2630;52.036;8.514;2023-08-20T15:13:24;90.70;;;8.83;;